Time;durP1;ratioP1;P1;durP2;ratioP2;P2;SDS_P1;SDS_P2;PMS_P1;PMS_P2;Temp;Humidity;BMP_temperature;BMP_pressure;BME280_temperature;BME280_humidity;BME280_pressure;Samples;Min_cycle;Max_cycle;Signal;HPM_P1;HPM_P2
2023/09/17 00:02:00;;;;;;;24.00;21.63;;;16.80;99.90;;;;;;7374044;19;20464;-68
2023/09/17 00:04:26;;;;;;;24.20;22.10;;;16.80;99.90;;;;;;7369835;19;20382;-68
2023/09/17 00:06:52;;;;;;;24.33;22.02;;;16.70;99.90;;;;;;7369650;19;20007;-66
2023/09/17 00:09:19;;;;;;;24.55;22.25;;;16.70;99.90;;;;;;7372597;19;20018;-68
2023/09/17 00:11:45;;;;;;;25.85;23.48;;;16.70;99.90;;;;;;7373166;19;20330;-66
2023/09/17 00:14:11;;;;;;;26.33;23.92;;;16.70;99.90;;;;;;7371422;19;20025;-68
2023/09/17 00:16:38;;;;;;;28.55;25.75;;;16.60;99.90;;;;;;7373630;19;20039;-61
2023/09/17 00:19:04;;;;;;;26.98;24.67;;;16.60;99.90;;;;;;7369655;19;20342;-60
2023/09/17 00:21:30;;;;;;;27.08;24.48;;;16.60;99.90;;;;;;7371786;19;20018;-61
2023/09/17 00:23:57;;;;;;;26.48;23.98;;;16.60;99.90;;;;;;7371135;19;20105;-60
2023/09/17 00:26:23;;;;;;;26.27;23.77;;;16.60;99.90;;;;;;7372089;19;20058;-60
2023/09/17 00:28:50;;;;;;;28.02;25.50;;;16.50;99.90;;;;;;7372114;19;20014;-59
2023/09/17 00:31:16;;;;;;;28.60;25.90;;;16.50;99.90;;;;;;7371114;19;20018;-60
2023/09/17 00:33:42;;;;;;;28.88;26.48;;;16.50;99.90;;;;;;7371315;19;20501;-61
2023/09/17 00:36:09;;;;;;;28.48;25.77;;;16.50;99.90;;;;;;7371074;19;20014;-66
2023/09/17 00:38:35;;;;;;;31.10;28.30;;;16.50;99.90;;;;;;7370814;19;20018;-67
2023/09/17 00:41:01;;;;;;;32.30;29.17;;;16.50;99.90;;;;;;7369748;19;20047;-67
2023/09/17 00:43:48;;;;;;;31.55;28.67;;;16.50;99.90;;;;;;7373014;19;20021;-60
2023/09/17 00:46:14;;;;;;;30.50;27.55;;;16.50;99.90;;;;;;7370020;19;20018;-60
2023/09/17 00:48:42;;;;;;;31.50;28.63;;;16.50;99.90;;;;;;7371615;19;20015;-60
2023/09/17 00:51:09;;;;;;;30.77;28.05;;;16.50;99.90;;;;;;7367257;19;20046;-61
2023/09/17 00:53:36;;;;;;;30.88;28.05;;;16.40;99.90;;;;;;7368221;19;20448;-67
2023/09/17 00:56:03;;;;;;;30.83;28.02;;;16.50;99.90;;;;;;7369438;19;20454;-68
2023/09/17 00:58:31;;;;;;;31.52;28.70;;;16.50;99.90;;;;;;7364823;19;20029;-66
2023/09/17 01:00:58;;;;;;;30.85;28.05;;;16.50;99.90;;;;;;7372675;19;20026;-66
2023/09/17 01:03:28;;;;;;;29.98;27.23;;;16.50;99.90;;;;;;7370827;19;20502;-60
2023/09/17 01:05:57;;;;;;;31.35;28.63;;;16.40;99.90;;;;;;7367578;19;20926;-67
2023/09/17 01:08:24;;;;;;;31.30;28.33;;;16.50;99.90;;;;;;7369215;19;20025;-67
2023/09/17 01:10:57;;;;;;;31.83;28.80;;;16.40;99.90;;;;;;7370482;19;20056;-60
2023/09/17 01:13:24;;;;;;;31.17;28.38;;;16.50;99.90;;;;;;7367576;19;20105;-60
2023/09/17 01:15:53;;;;;;;32.70;29.58;;;16.50;99.90;;;;;;7368755;19;20042;-60
2023/09/17 01:18:22;;;;;;;31.92;28.77;;;16.50;99.90;;;;;;7367486;19;20506;-60
2023/09/17 01:21:05;;;;;;;32.55;29.63;;;16.60;99.90;;;;;;7370380;19;20496;-61
2023/09/17 01:23:39;;;;;;;31.10;28.27;;;16.50;99.90;;;;;;7367092;19;20677;-61
2023/09/17 01:26:15;;;;;;;33.42;30.33;;;16.60;99.90;;;;;;7363047;19;20014;-61
2023/09/17 01:28:42;;;;;;;31.45;28.58;;;16.70;99.90;;;;;;7371853;19;20078;-60
2023/09/17 01:31:09;;;;;;;31.20;28.48;;;16.60;99.90;;;;;;7366427;19;20046;-60
2023/09/17 01:33:35;;;;;;;32.13;29.15;;;16.50;99.90;;;;;;7368294;19;20018;-61
2023/09/17 01:36:16;;;;;;;32.25;29.42;;;16.50;99.90;;;;;;7369383;19;20018;-60
2023/09/17 01:38:50;;;;;;;34.88;31.52;;;16.50;99.90;;;;;;7361290;19;20446;-61
2023/09/17 01:41:18;;;;;;;33.55;30.58;;;16.50;99.90;;;;;;7370456;19;20081;-61
2023/09/17 01:43:45;;;;;;;33.42;29.98;;;16.50;99.90;;;;;;7368780;19;20018;-61
2023/09/17 01:46:12;;;;;;;32.97;29.90;;;16.50;99.90;;;;;;7366505;19;20025;-63
2023/09/17 01:48:42;;;;;;;32.30;29.15;;;16.50;99.90;;;;;;7361601;19;20046;-60
2023/09/17 01:51:11;;;;;;;32.42;29.42;;;16.50;99.90;;;;;;7375670;19;20376;-61
2023/09/17 01:53:38;;;;;;;32.08;29.27;;;16.50;99.90;;;;;;7369242;19;21056;-60
2023/09/17 01:56:04;;;;;;;31.17;28.55;;;16.50;99.90;;;;;;7378194;19;20022;-63
2023/09/17 01:58:31;;;;;;;32.40;29.27;;;16.60;99.90;;;;;;7376490;19;20644;-60
2023/09/17 02:00:57;;;;;;;33.63;30.73;;;16.50;99.90;;;;;;7377028;19;20395;-61
2023/09/17 02:03:23;;;;;;;32.17;29.50;;;16.40;99.90;;;;;;7375436;19;20028;-60
2023/09/17 02:05:49;;;;;;;33.92;31.00;;;16.50;99.90;;;;;;7376312;19;20342;-62
2023/09/17 02:08:36;;;;;;;32.55;29.55;;;16.50;99.90;;;;;;7374049;19;20022;-60
2023/09/17 02:11:05;;;;;;;33.60;30.23;;;16.50;99.90;;;;;;7377385;19;20021;-60
2023/09/17 02:13:31;;;;;;;33.80;30.38;;;16.50;99.90;;;;;;7374375;19;20010;-60
2023/09/17 02:15:57;;;;;;;34.35;31.13;;;16.50;99.90;;;;;;7377836;19;20027;-60
2023/09/17 02:18:24;;;;;;;33.47;30.58;;;16.50;99.90;;;;;;7371306;19;20693;-60
2023/09/17 02:20:50;;;;;;;33.13;30.17;;;16.50;99.90;;;;;;7374998;19;20023;-60
2023/09/17 02:23:36;;;;;;;33.58;30.40;;;16.50;99.90;;;;;;7371526;19;20025;-60
2023/09/17 02:26:05;;;;;;;32.75;29.45;;;16.60;99.90;;;;;;7372812;19;20338;-61
2023/09/17 02:28:31;;;;;;;31.65;28.80;;;16.60;99.90;;;;;;7372808;19;20469;-61
2023/09/17 02:30:59;;;;;;;34.58;31.48;;;16.60;99.90;;;;;;7371492;19;20542;-61
2023/09/17 02:33:26;;;;;;;34.47;31.45;;;16.50;99.90;;;;;;7371834;19;20022;-60
2023/09/17 02:35:53;;;;;;;34.13;30.92;;;16.50;99.90;;;;;;7378339;19;20018;-60
2023/09/17 02:38:20;;;;;;;34.03;30.95;;;16.50;99.90;;;;;;7368368;19;20015;-60
2023/09/17 02:40:46;;;;;;;34.13;31.00;;;16.50;99.90;;;;;;7375722;19;20018;-61
2023/09/17 02:43:13;;;;;;;34.15;30.98;;;16.50;99.90;;;;;;7373648;19;20505;-61
2023/09/17 02:45:40;;;;;;;35.15;31.85;;;16.50;99.90;;;;;;7372714;19;20018;-61
2023/09/17 02:48:06;;;;;;;35.42;32.33;;;16.40;99.90;;;;;;7379166;19;20497;-61
2023/09/17 02:50:32;;;;;;;36.13;32.83;;;16.40;99.90;;;;;;7374777;19;20029;-61
2023/09/17 02:53:03;;;;;;;36.58;33.28;;;16.40;99.90;;;;;;7370641;19;20010;-61
2023/09/17 02:55:31;;;;;;;37.58;34.08;;;16.50;99.90;;;;;;7370575;19;20022;-60
2023/09/17 02:57:57;;;;;;;35.95;32.55;;;16.40;99.90;;;;;;7368068;19;20537;-60
2023/09/17 03:00:24;;;;;;;37.53;34.13;;;16.40;99.90;;;;;;7367569;19;20482;-60
2023/09/17 03:02:54;;;;;;;38.60;35.03;;;16.40;99.90;;;;;;7369073;19;20058;-60
2023/09/17 03:05:20;;;;;;;41.45;37.33;;;16.40;99.90;;;;;;7369667;19;20539;-60
2023/09/17 03:07:47;;;;;;;40.20;36.63;;;16.40;99.90;;;;;;7371228;19;20022;-60
2023/09/17 03:10:14;;;;;;;39.70;36.05;;;16.40;99.90;;;;;;7369481;19;20026;-60
2023/09/17 03:12:43;;;;;;;40.55;36.67;;;16.40;99.90;;;;;;7367238;19;20346;-60
2023/09/17 03:15:10;;;;;;;40.55;36.75;;;16.40;99.90;;;;;;7370476;19;20678;-59
2023/09/17 03:17:57;;;;;;;41.53;37.67;;;16.40;99.90;;;;;;7366992;19;20043;-60
2023/09/17 03:20:25;;;;;;;40.30;36.78;;;16.30;99.90;;;;;;7373797;19;20106;-60
2023/09/17 03:22:51;;;;;;;42.67;38.53;;;16.40;99.90;;;;;;7367513;19;20022;-60
2023/09/17 03:25:18;;;;;;;39.45;35.90;;;16.40;99.90;;;;;;7367449;19;20388;-60
2023/09/17 03:28:06;;;;;;;40.05;36.28;;;16.40;99.90;;;;;;7366854;19;20111;-60
2023/09/17 03:30:33;;;;;;;41.50;37.50;;;16.40;99.90;;;;;;7370070;19;20026;-60
2023/09/17 03:33:22;;;;;;;39.90;36.08;;;16.40;99.90;;;;;;7365404;19;20041;-60
2023/09/17 03:35:49;;;;;;;39.85;35.88;;;16.40;99.90;;;;;;7371157;19;20018;-60
2023/09/17 03:38:18;;;;;;;41.83;37.80;;;16.40;99.90;;;;;;7363148;19;20385;-60
2023/09/17 03:40:45;;;;;;;40.78;36.95;;;16.40;99.90;;;;;;7371774;19;20023;-61
2023/09/17 03:43:11;;;;;;;40.95;36.90;;;16.40;99.90;;;;;;7365364;19;20689;-60
2023/09/17 03:45:38;;;;;;;40.67;36.97;;;16.40;99.90;;;;;;7369364;19;20041;-60
2023/09/17 03:48:05;;;;;;;44.92;40.58;;;16.40;99.90;;;;;;7367468;19;20591;-60
2023/09/17 03:50:31;;;;;;;42.90;39.00;;;16.40;99.90;;;;;;7368369;19;20025;-60
2023/09/17 03:53:01;;;;;;;42.40;38.35;;;16.40;99.90;;;;;;7365029;19;20026;-61
2023/09/17 03:55:28;;;;;;;43.85;39.63;;;16.40;99.90;;;;;;7369572;19;20494;-60
2023/09/17 03:57:57;;;;;;;45.35;41.10;;;16.40;99.90;;;;;;7368547;19;20361;-60
2023/09/17 04:00:28;;;;;;;44.38;40.47;;;16.40;99.90;;;;;;7369370;19;20433;-60
2023/09/17 04:03:18;;;;;;;44.38;39.90;;;16.40;99.90;;;;;;7368792;19;20057;-60
2023/09/17 04:05:46;;;;;;;44.95;40.40;;;16.40;99.90;;;;;;7370120;19;20018;-61
2023/09/17 04:08:13;;;;;;;43.05;38.78;;;16.40;99.90;;;;;;7370685;19;20015;-61
2023/09/17 04:10:39;;;;;;;41.28;37.40;;;16.40;99.90;;;;;;7369116;19;20019;-60
2023/09/17 04:13:06;;;;;;;43.42;39.15;;;16.40;99.90;;;;;;7369193;19;20033;-61
2023/09/17 04:15:33;;;;;;;44.22;39.80;;;16.40;99.90;;;;;;7367885;19;20021;-61
2023/09/17 04:17:59;;;;;;;41.70;37.85;;;16.40;99.90;;;;;;7368471;19;20019;-61
2023/09/17 04:20:27;;;;;;;43.05;38.95;;;16.40;99.90;;;;;;7371539;19;20018;-61
2023/09/17 04:22:53;;;;;;;38.65;35.13;;;16.40;99.90;;;;;;7371407;19;20038;-61
2023/09/17 04:25:20;;;;;;;39.75;35.70;;;16.40;99.90;;;;;;7367076;19;20024;-67
2023/09/17 04:27:48;;;;;;;40.25;36.58;;;16.40;99.90;;;;;;7374540;19;20107;-67
2023/09/17 04:30:18;;;;;;;42.13;38.00;;;16.40;99.90;;;;;;7368956;19;20025;-68
2023/09/17 04:32:46;;;;;;;38.80;35.10;;;16.40;99.90;;;;;;7371902;19;20166;-67
2023/09/17 04:35:15;;;;;;;40.63;36.67;;;16.40;99.90;;;;;;7365242;19;20521;-68
2023/09/17 04:37:44;;;;;;;38.30;34.60;;;16.40;99.90;;;;;;7369339;19;20836;-61
2023/09/17 04:40:11;;;;;;;38.85;35.15;;;16.40;99.90;;;;;;7368610;19;20084;-68
2023/09/17 04:42:42;;;;;;;41.17;37.15;;;16.40;99.90;;;;;;7369203;19;20040;-67
2023/09/17 04:45:10;;;;;;;39.38;35.58;;;16.40;99.90;;;;;;7367081;19;20880;-60
2023/09/17 04:47:39;;;;;;;37.63;33.95;;;16.40;99.90;;;;;;7370466;19;20043;-67
2023/09/17 04:50:10;;;;;;;39.20;35.58;;;16.40;99.90;;;;;;7368597;19;20018;-67
2023/09/17 04:52:37;;;;;;;;;;;16.40;99.90;;;;;;7367641;19;20015;-67
2023/09/17 04:55:05;;;;;;;42.70;38.53;;;16.40;99.90;;;;;;7363846;19;19982;-67
2023/09/17 04:57:53;;;;;;;41.92;37.80;;;16.40;99.90;;;;;;7366447;19;21287;-67
2023/09/17 05:00:20;;;;;;;43.25;39.08;;;16.30;99.90;;;;;;7368851;19;20737;-67
2023/09/17 05:02:48;;;;;;;44.78;40.45;;;16.30;99.90;;;;;;7361075;19;20015;-68
2023/09/17 05:05:17;;;;;;;44.85;40.40;;;16.30;99.90;;;;;;7363640;19;20595;-68
2023/09/17 05:07:44;;;;;;;46.10;41.75;;;16.30;99.90;;;;;;7366382;19;20469;-67
2023/09/17 05:10:10;;;;;;;43.65;39.55;;;16.30;99.90;;;;;;7361369;19;20086;-67
2023/09/17 05:12:37;;;;;;;44.42;40.28;;;16.30;99.90;;;;;;7365954;19;20094;-67
2023/09/17 05:15:04;;;;;;;45.55;41.38;;;16.30;99.90;;;;;;7362657;19;20533;-67
2023/09/17 05:17:31;;;;;;;43.35;39.03;;;16.30;99.90;;;;;;7366033;19;20366;-66
2023/09/17 05:19:57;;;;;;;45.78;41.38;;;16.30;99.90;;;;;;7365532;19;20026;-67
2023/09/17 05:22:24;;;;;;;45.40;40.97;;;16.30;99.90;;;;;;7365722;19;20018;-67
2023/09/17 05:24:50;;;;;;;41.92;37.78;;;16.30;99.90;;;;;;7365700;19;20078;-67
2023/09/17 05:27:16;;;;;;;44.30;40.00;;;16.30;99.90;;;;;;7368812;19;20010;-68
2023/09/17 05:29:46;;;;;;;45.78;41.28;;;16.20;99.90;;;;;;7368109;19;20038;-67
2023/09/17 05:32:12;;;;;;;43.67;39.65;;;16.30;99.90;;;;;;7365094;19;20078;-67
2023/09/17 05:34:39;;;;;;;44.83;40.63;;;16.30;99.90;;;;;;7363912;19;20032;-67
2023/09/17 05:37:06;;;;;;;44.60;40.42;;;16.30;99.90;;;;;;7365025;19;20387;-66
2023/09/17 05:39:35;;;;;;;46.92;42.20;;;16.40;99.90;;;;;;7364354;19;20109;-60
2023/09/17 05:42:01;;;;;;;46.38;42.08;;;16.40;99.90;;;;;;7364850;19;20085;-60
2023/09/17 05:44:30;;;;;;;47.22;42.88;;;16.30;99.90;;;;;;7366004;19;20095;-60
2023/09/17 05:46:58;;;;;;;48.50;43.67;;;16.40;99.90;;;;;;7365634;19;20098;-60
2023/09/17 05:49:28;;;;;;;45.58;41.28;;;16.40;99.90;;;;;;7363901;19;20015;-60
2023/09/17 05:51:56;;;;;;;49.75;44.90;;;16.40;99.90;;;;;;7360580;19;20018;-66
2023/09/17 05:54:24;;;;;;;52.05;46.78;;;16.40;99.90;;;;;;7358823;19;20023;-66
2023/09/17 05:56:52;;;;;;;49.97;45.60;;;16.50;99.90;;;;;;7359317;19;20038;-63
2023/09/17 05:59:39;;;;;;;53.55;48.67;;;16.50;99.90;;;;;;7361518;19;20374;-66
2023/09/17 06:02:07;;;;;;;54.22;48.95;;;16.50;99.90;;;;;;7364379;19;20033;-67
2023/09/17 06:04:34;;;;;;;50.67;45.60;;;16.50;99.90;;;;;;7359353;19;20018;-67
2023/09/17 06:07:00;;;;;;;48.65;44.22;;;16.50;99.90;;;;;;7359730;19;20109;-67
2023/09/17 06:09:26;;;;;;;51.80;46.92;;;16.50;99.90;;;;;;7360223;19;20015;-67
2023/09/17 06:11:53;;;;;;;56.28;50.47;;;16.60;99.90;;;;;;7362153;19;20041;-67
2023/09/17 06:14:19;;;;;;;49.67;44.88;;;16.60;99.90;;;;;;7361966;19;20097;-66
2023/09/17 06:16:49;;;;;;;60.58;54.38;;;16.60;99.90;;;;;;7362833;19;20296;-67
2023/09/17 06:19:15;;;;;;;51.05;46.22;;;16.60;99.90;;;;;;7365665;19;20015;-67
2023/09/17 06:21:41;;;;;;;52.47;47.40;;;16.70;99.90;;;;;;7361090;19;20022;-67
2023/09/17 06:24:08;;;;;;;51.42;46.58;;;16.70;99.90;;;;;;7365525;19;20373;-68
2023/09/17 06:26:35;;;;;;;61.20;55.33;;;16.80;99.90;;;;;;7358338;19;20325;-60
2023/09/17 06:29:01;;;;;;;52.20;47.28;;;16.80;99.90;;;;;;7364871;19;21086;-59
2023/09/17 06:31:28;;;;;;;51.10;46.40;;;16.90;99.90;;;;;;7364321;19;20580;-61
2023/09/17 06:33:54;;;;;;;50.22;45.30;;;16.90;99.90;;;;;;7363875;19;20481;-59
2023/09/17 06:36:22;;;;;;;50.45;45.58;;;17.00;99.90;;;;;;7364946;19;20027;-66
2023/09/17 06:38:48;;;;;;;49.03;44.50;;;17.00;99.90;;;;;;7367387;19;20018;-65
2023/09/17 06:41:14;;;;;;;49.03;44.42;;;17.10;99.90;;;;;;7369576;19;20018;-68
2023/09/17 06:43:41;;;;;;;47.55;42.97;;;17.10;99.90;;;;;;7366216;19;22150;-60
2023/09/17 06:46:07;;;;;;;46.28;41.92;;;17.10;99.90;;;;;;7368336;19;20117;-59
2023/09/17 06:48:34;;;;;;;55.95;50.75;;;17.20;99.90;;;;;;7371981;19;20025;-60
2023/09/17 06:51:01;;;;;;;49.38;44.90;;;17.30;99.90;;;;;;7371234;19;20331;-62
2023/09/17 06:53:47;;;;;;;43.22;39.22;;;17.30;99.90;;;;;;7372759;19;20015;-59
2023/09/17 06:56:14;;;;;;;46.33;42.05;;;17.30;99.90;;;;;;7368394;19;20058;-59
2023/09/17 06:58:42;;;;;;;43.60;39.58;;;17.30;99.90;;;;;;7373919;19;20402;-59
2023/09/17 07:01:09;;;;;;;45.00;40.67;;;17.30;99.90;;;;;;7372505;19;20494;-59
2023/09/17 07:03:36;;;;;;;42.40;38.55;;;17.20;99.90;;;;;;7370833;19;20019;-59
2023/09/17 07:06:02;;;;;;;61.33;55.63;;;17.20;99.90;;;;;;7369507;19;20600;-58
2023/09/17 07:08:28;;;;;;;47.42;42.90;;;17.20;99.90;;;;;;7368876;19;20015;-60
2023/09/17 07:10:56;;;;;;;40.33;36.35;;;17.20;99.90;;;;;;7368629;19;20018;-60
2023/09/17 07:13:43;;;;;;;42.20;38.33;;;17.20;99.90;;;;;;7371050;19;20030;-58
2023/09/17 07:16:09;;;;;;;48.47;43.97;;;17.20;99.90;;;;;;7368938;19;20023;-66
2023/09/17 07:18:35;;;;;;;46.08;41.72;;;17.20;99.90;;;;;;7370865;19;20014;-67
2023/09/17 07:21:01;;;;;;;44.45;40.13;;;17.20;99.90;;;;;;7370273;19;20018;-67
2023/09/17 07:23:27;;;;;;;56.28;50.67;;;17.20;99.90;;;;;;7369365;19;20596;-67
2023/09/17 07:25:54;;;;;;;47.33;43.05;;;17.20;99.90;;;;;;7368843;19;20473;-63
2023/09/17 07:28:20;;;;;;;44.92;40.72;;;17.20;99.90;;;;;;7373409;19;20549;-67
2023/09/17 07:30:52;;;;;;;43.85;39.95;;;17.20;99.90;;;;;;7368681;19;20025;-67
2023/09/17 07:33:18;;;;;;;;;;;17.30;99.90;;;;;;7370622;19;20014;-67
2023/09/17 07:35:44;;;;;;;49.65;44.75;;;17.30;99.90;;;;;;7371199;19;19914;-68
2023/09/17 07:38:10;;;;;;;42.22;38.38;;;17.40;99.90;;;;;;7372311;19;20129;-65
2023/09/17 07:40:37;;;;;;;42.42;38.60;;;17.40;99.90;;;;;;7367828;19;20022;-67
2023/09/17 07:43:04;;;;;;;47.85;43.42;;;17.40;99.90;;;;;;7369783;19;20274;-67
2023/09/17 07:45:34;;;;;;;38.42;35.08;;;17.40;99.90;;;;;;7371227;19;20454;-66
2023/09/17 07:48:04;;;;;;;42.78;38.60;;;17.40;99.90;;;;;;7364501;19;20964;-67
2023/09/17 07:50:30;;;;;;;47.33;43.00;;;17.40;99.90;;;;;;7371536;19;20014;-67
2023/09/17 07:52:59;;;;;;;41.17;37.35;;;17.40;99.90;;;;;;7370652;19;20022;-67
2023/09/17 07:55:26;;;;;;;50.13;45.60;;;17.40;99.90;;;;;;7372798;19;20415;-59
2023/09/17 07:57:52;;;;;;;48.53;44.00;;;17.40;99.90;;;;;;7368896;19;20023;-61
2023/09/17 08:00:20;;;;;;;48.17;43.63;;;17.40;99.90;;;;;;7373778;19;20660;-61
2023/09/17 08:02:48;;;;;;;44.30;40.25;;;17.40;99.90;;;;;;7369959;19;20018;-61
2023/09/17 08:05:15;;;;;;;40.47;36.78;;;17.40;99.90;;;;;;7373815;19;20410;-58
2023/09/17 08:07:41;;;;;;;40.67;37.13;;;17.50;99.90;;;;;;7369943;19;20007;-59
2023/09/17 08:10:08;;;;;;;39.33;35.83;;;17.50;99.90;;;;;;7372111;19;20515;-59
2023/09/17 08:12:34;;;;;;;38.30;34.97;;;17.60;99.90;;;;;;7373151;19;20019;-59
2023/09/17 08:15:01;;;;;;;38.38;35.03;;;17.70;99.90;;;;;;7368782;19;20459;-59
2023/09/17 08:17:27;;;;;;;40.33;36.55;;;17.70;99.90;;;;;;7374024;19;20018;-67
2023/09/17 08:19:54;;;;;;;39.45;35.85;;;17.80;99.90;;;;;;7369684;19;20754;-59
2023/09/17 08:22:21;;;;;;;38.35;34.92;;;17.80;99.90;;;;;;7370646;19;20547;-59
2023/09/17 08:25:24;;;;;;;38.55;35.22;;;18.00;99.90;;;;;;7370747;19;20022;-59
2023/09/17 08:28:15;;;;;;;42.28;38.50;;;18.10;99.90;;;;;;7364716;19;20018;-59
2023/09/17 08:31:02;;;;;;;39.80;36.22;;;18.10;99.90;;;;;;7373085;19;20015;-59
2023/09/17 08:33:49;;;;;;;46.05;41.83;;;18.20;99.90;;;;;;7371755;19;20044;-59
2023/09/17 08:36:19;;;;;;;39.40;35.90;;;18.10;99.90;;;;;;7369939;19;20042;-67
2023/09/17 08:38:46;;;;;;;40.45;36.92;;;18.10;99.90;;;;;;7371494;19;20029;-66
2023/09/17 08:41:13;;;;;;;54.08;49.20;;;18.10;99.90;;;;;;7373734;19;20018;-66
2023/09/17 08:43:41;;;;;;;46.03;41.72;;;18.00;99.90;;;;;;7371390;19;20124;-67
2023/09/17 08:46:07;;;;;;;39.50;36.10;;;18.00;99.90;;;;;;7368795;19;20023;-67
2023/09/17 08:48:33;;;;;;;50.30;45.70;;;18.00;99.90;;;;;;7370198;19;20496;-66
2023/09/17 08:51:01;;;;;;;38.08;34.30;;;18.10;99.90;;;;;;7374268;19;20094;-71
2023/09/17 08:53:38;;;;;;;38.80;35.17;;;18.20;99.90;;;;;;7371383;19;20022;-66
2023/09/17 08:56:06;;;;;;;53.42;48.53;;;18.30;99.90;;;;;;7370076;19;20023;-66
2023/09/17 08:58:39;;;;;;;41.53;37.70;;;18.30;99.90;;;;;;7366528;19;20022;-65
2023/09/17 09:01:11;;;;;;;39.13;35.72;;;18.50;99.90;;;;;;7367994;19;20846;-66
2023/09/17 09:03:39;;;;;;;39.72;36.13;;;18.60;99.90;;;;;;7372777;19;20380;-66
2023/09/17 09:06:07;;;;;;;41.35;37.75;;;18.80;99.90;;;;;;7367042;19;20025;-65
2023/09/17 09:08:35;;;;;;;37.38;34.25;;;18.90;99.90;;;;;;7367062;19;20022;-66
2023/09/17 09:11:02;;;;;;;38.38;34.85;;;19.00;99.90;;;;;;7372014;19;20038;-66
2023/09/17 09:13:29;;;;;;;39.88;36.08;;;19.10;99.90;;;;;;7370871;19;20019;-66
2023/09/17 09:15:57;;;;;;;37.00;33.78;;;19.10;99.90;;;;;;7370348;19;20026;-66
2023/09/17 09:18:24;;;;;;;38.85;35.38;;;19.20;99.90;;;;;;7366841;19;20010;-67
2023/09/17 09:20:50;;;;;;;50.28;45.67;;;19.20;99.90;;;;;;7367769;19;20504;-60
2023/09/17 09:23:16;;;;;;;41.20;37.60;;;19.20;99.90;;;;;;7368890;19;20018;-66
2023/09/17 09:26:04;;;;;;;35.28;32.28;;;19.30;99.90;;;;;;7369619;19;20022;-66
2023/09/17 09:28:31;;;;;;;36.40;33.10;;;19.40;99.90;;;;;;7369987;19;20018;-60
2023/09/17 09:30:57;;;;;;;33.72;30.70;;;19.50;99.90;;;;;;7371690;19;20467;-67
2023/09/17 09:33:24;;;;;;;45.10;40.83;;;19.60;99.90;;;;;;7370277;19;20026;-67
2023/09/17 09:36:11;;;;;;;36.33;33.13;;;19.70;99.90;;;;;;7370599;19;20612;-67
2023/09/17 09:38:38;;;;;;;37.55;34.20;;;19.80;99.90;;;;;;7368003;19;20266;-68
2023/09/17 09:41:04;;;;;;;27.20;24.70;;;19.70;99.90;;;;;;7370345;19;20022;-68
2023/09/17 09:43:32;;;;;;;28.17;25.65;;;19.60;99.90;;;;;;7365743;19;20099;-69
2023/09/17 09:46:05;;;;;;;27.88;25.38;;;19.50;99.90;;;;;;7371372;19;20286;-67
2023/09/17 09:48:52;;;;;;;39.22;35.72;;;19.30;99.90;;;;;;7368583;19;20034;-67
2023/09/17 09:51:18;;;;;;;42.40;38.65;;;19.20;99.90;;;;;;7367895;19;20378;-59
2023/09/17 09:53:45;;;;;;;27.70;25.13;;;19.20;99.90;;;;;;7366630;19;20019;-59
2023/09/17 09:56:31;;;;;;;43.42;39.45;;;19.20;99.90;;;;;;7365442;19;20057;-59
2023/09/17 09:59:03;;;;;;;29.85;27.17;;;19.20;99.90;;;;;;7368426;19;20037;-59
2023/09/17 10:01:31;;;;;;;26.00;23.65;;;19.20;99.90;;;;;;7368281;19;20497;-59
2023/09/17 10:03:58;;;;;;;27.38;24.75;;;19.10;99.90;;;;;;7369183;19;20462;-60
2023/09/17 10:06:31;;;;;;;27.27;24.85;;;19.10;99.90;;;;;;7363933;19;20522;-58
2023/09/17 10:09:02;;;;;;;29.77;27.15;;;19.10;99.90;;;;;;7366620;19;20074;-59
2023/09/17 10:11:30;;;;;;;29.05;26.20;;;19.00;99.90;;;;;;7370555;19;20026;-59
2023/09/17 10:14:06;;;;;;;35.63;32.30;;;19.00;99.90;;;;;;7373537;19;20026;-59
2023/09/17 10:16:36;;;;;;;36.65;33.17;;;19.00;99.90;;;;;;7372019;19;20592;-61
2023/09/17 10:19:04;;;;;;;41.10;36.97;;;18.90;99.90;;;;;;7372242;19;20505;-60
2023/09/17 10:21:37;;;;;;;39.08;35.40;;;18.80;99.90;;;;;;7370817;19;20042;-59
2023/09/17 10:24:04;;;;;;;41.05;37.38;;;18.70;99.90;;;;;;7373581;19;20030;-58
2023/09/17 10:26:41;;;;;;;49.88;45.10;;;18.60;99.90;;;;;;7364538;19;20577;-59
2023/09/17 10:29:11;;;;;;;48.88;44.22;;;18.60;99.90;;;;;;7372004;19;20019;-60
2023/09/17 10:31:40;;;;;;;44.90;40.80;;;18.70;99.90;;;;;;7372757;19;20022;-59
2023/09/17 10:34:09;;;;;;;44.10;39.78;;;18.90;99.90;;;;;;7378589;19;20557;-59
2023/09/17 10:36:38;;;;;;;44.45;40.22;;;19.00;99.90;;;;;;7370860;19;20082;-58
2023/09/17 10:39:10;;;;;;;46.83;42.53;;;19.10;99.90;;;;;;7373969;19;20015;-58
2023/09/17 10:41:37;;;;;;;51.55;46.45;;;19.20;99.90;;;;;;7373997;19;20086;-58
2023/09/17 10:44:05;;;;;;;57.83;52.33;;;19.30;99.90;;;;;;7379267;19;20015;-59
2023/09/17 10:46:31;;;;;;;53.40;48.50;;;19.40;99.90;;;;;;7367219;19;20054;-58
2023/09/17 10:49:00;;;;;;;44.47;40.20;;;19.40;99.90;;;;;;7375355;19;20038;-58
2023/09/17 10:51:27;;;;;;;42.03;38.28;;;19.40;99.90;;;;;;7366366;19;20627;-59
2023/09/17 10:54:14;;;;;;;39.38;35.92;;;19.30;99.90;;;;;;7373157;19;20050;-59
2023/09/17 10:56:45;;;;;;;47.30;42.50;;;19.20;99.90;;;;;;7368646;19;20014;-66
2023/09/17 10:59:15;;;;;;;44.00;39.63;;;19.20;99.90;;;;;;7375985;19;20021;-63
2023/09/17 11:01:44;;;;;;;42.55;38.55;;;19.10;99.90;;;;;;7373516;19;20532;-67
2023/09/17 11:04:16;;;;;;;52.47;47.40;;;19.10;99.90;;;;;;7375660;19;20129;-68
2023/09/17 11:06:46;;;;;;;53.25;47.88;;;19.20;99.90;;;;;;7367047;19;20023;-59
2023/09/17 11:09:14;;;;;;;52.22;47.38;;;19.40;99.90;;;;;;7371347;19;20014;-59
2023/09/17 11:11:41;;;;;;;47.00;42.58;;;19.50;99.90;;;;;;7369772;19;20018;-59
2023/09/17 11:14:08;;;;;;;43.60;39.65;;;19.70;99.90;;;;;;7371868;19;20032;-64
2023/09/17 11:16:36;;;;;;;49.35;44.40;;;19.90;99.90;;;;;;7371692;19;20022;-68
2023/09/17 11:19:10;;;;;;;42.53;38.53;;;20.00;99.90;;;;;;7371844;19;20518;-68
2023/09/17 11:21:37;;;;;;;45.47;41.30;;;20.30;99.90;;;;;;7371900;19;20369;-68
2023/09/17 11:24:06;;;;;;;45.47;41.47;;;21.00;99.90;;;;;;7377034;19;20497;-69
2023/09/17 11:26:35;;;;;;;94.25;85.03;;;21.70;99.90;;;;;;7371828;19;20067;-69
2023/09/17 11:29:05;;;;;;;39.22;35.92;;;22.20;99.90;;;;;;7373382;19;20018;-68
2023/09/17 11:31:36;;;;;;;53.25;48.22;;;22.00;99.90;;;;;;7372417;19;20372;-69
2023/09/17 11:34:10;;;;;;;33.47;30.50;;;22.10;99.90;;;;;;7373710;19;20026;-68
2023/09/17 11:36:37;;;;;;;31.60;28.55;;;22.20;99.90;;;;;;7371832;19;20047;-68
2023/09/17 11:39:05;;;;;;;36.38;33.08;;;22.20;99.90;;;;;;7373557;19;20064;-68
2023/09/17 11:41:55;;;;;;;30.40;27.60;;;22.40;99.90;;;;;;7369062;19;20024;-64
2023/09/17 11:44:22;;;;;;;39.05;35.33;;;22.20;99.90;;;;;;7369628;19;20101;-59
2023/09/17 11:46:49;;;;;;;39.22;35.70;;;23.20;99.90;;;;;;7369644;19;20025;-60
2023/09/17 11:49:18;;;;;;;39.33;35.78;;;23.60;99.90;;;;;;7370538;19;20112;-59
2023/09/17 11:51:46;;;;;;;31.70;28.80;;;23.80;99.90;;;;;;7370683;19;20019;-58
2023/09/17 11:54:15;;;;;;;44.45;40.28;;;23.50;99.90;;;;;;7367311;19;20103;-59
2023/09/17 11:56:53;;;;;;;34.28;31.23;;;23.60;99.90;;;;;;7367175;19;20018;-58
2023/09/17 11:59:22;;;;;;;28.83;26.13;;;23.80;99.90;;;;;;7371451;19;20536;-59
2023/09/17 12:02:09;;;;;;;29.33;26.75;;;23.70;99.90;;;;;;7367336;19;20383;-59
2023/09/17 12:04:37;;;;;;;28.38;25.75;;;23.40;99.90;;;;;;7367914;19;20018;-59
2023/09/17 12:07:09;;;;;;;26.85;24.45;;;23.10;99.90;;;;;;7367738;19;20022;-58
2023/09/17 12:10:02;;;;;;;26.73;24.42;;;22.90;99.90;;;;;;7367431;19;21019;-59
2023/09/17 12:12:35;;;;;;;39.10;35.50;;;22.50;99.90;;;;;;7373043;19;20045;-59
2023/09/17 12:15:09;;;;;;;30.67;27.88;;;22.40;99.90;;;;;;7370067;19;20026;-58
2023/09/17 12:17:36;;;;;;;42.35;38.30;;;22.30;99.90;;;;;;7372073;19;20026;-59
2023/09/17 12:20:20;;;;;;;31.80;28.90;;;22.00;99.90;;;;;;7365852;19;20026;-59
2023/09/17 12:23:14;;;;;;;31.02;28.02;;;21.90;99.90;;;;;;7367062;19;20030;-60
2023/09/17 12:25:44;;;;;;;33.45;30.45;;;21.80;99.90;;;;;;7369019;19;20497;-59
2023/09/17 12:28:11;;;;;;;35.28;31.95;;;21.80;99.90;;;;;;7366219;19;20050;-59
2023/09/17 12:30:38;;;;;;;33.53;30.48;;;21.70;99.90;;;;;;7369057;19;20014;-58
2023/09/17 12:33:04;;;;;;;34.00;30.98;;;21.70;99.90;;;;;;7366314;19;20516;-58
2023/09/17 12:35:30;;;;;;;36.80;33.40;;;21.70;99.90;;;;;;7369667;19;20024;-59
2023/09/17 12:37:57;;;;;;;31.70;28.60;;;21.70;99.90;;;;;;7365674;19;20023;-60
2023/09/17 12:40:23;;;;;;;39.55;35.85;;;21.70;99.90;;;;;;7370027;19;20039;-58